Etusivu
METAR-TAF:

METAR-TAF

Lentoasemat :

Kairon kansainvälinen lentoasema

Kairo, Egypti

Leveyspiiri: 30-08N, Pituuspiiri: 031-24E, korkeus merenpinnasta: 64 m

Tämänhetkinen sää

Tämä raportti tehtiin 1 tunti ja 20 minuuttia sitten, kello 08.00 UTC
Tuuli 5 kn pohjoisesta
Lämpötila 29°C
Kosteus 58%
Ilmanpaine 1014 hPa
Näkyvyys: 6000 m
Hajanaisia pilviä 2500 ft:n korkeudessa

METAR: HECA 200800Z 35005KT 6000 SCT025 29/20 Q1014

Aika: 11:20 (09:20 UTC)

Sääennuste

Tämä raportti tehtiin 3 tuntia ja 50 minuuttia sitten, kello 05.30 UTC
Ennuste voimassa 20. päivästä klo 06 UTC - 21. päivään klo 12 UTC
Tuuli 8 kn pohjoisen/luoteesta
Näkyvyys 10 km tai enemmän
ei pilviä alle 1500 m:ssä eikä cumulonimbus-pilviä
Ajoittain
20. päivästä klo 06 UTC - 20. päivään klo 08 UTC
Tuuli 3 kn eri suunnista
Näkyvyys: 4000 m
utua

TAF: HECA 200530Z 2006/2112 34008KT CAVOK TEMPO 2006/2008 VRB03KT 4000 BR NSC

Säähavainnot ja -ennusteet yli 4000 lentoasemalta (METAR- ja TAF-raportit).

Käytössä olevat sääasemat on merkitty karttaan keltaisilla ja punaisilla pisteillä.

Aseta hiiri pisteen päälle nähdäksesi sääaseman nimen.

Klikkaa sitten nähdäksesi säähavainnot ja -ennusteet.

Kartan vaihtaminen: klikkaa mustalla rastilla varustettuja vihreitä pisteitä, niin voit zoomata sisään; viivalla varustettua vihreää pistettä, niin voit zoomata ulos tai vihreitä nuolia, niin pääset viereisille kartoille.


METAR-TAF: